Terminal Aerodrome Forecast
Issued by NWS

Home | Current Version | Previous Version | Graphics & Text | Print | Product List | Glossary On
Versions: 1 2 3 4 5 6 7 8 9 10 11 12 13 14 15 16 17 18 19 20 21 22
158
FTUS43 KLSX 040520
TAFSUS
TAF
KSUS 040520Z 0406/0506 23009KT P6SM BKN080
     FM040900 24011KT P6SM BKN060
      TEMPO 0409/0412 6SM -SHRA
     FM041300 27013G22KT P6SM BKN060
     FM041800 33017G26KT P6SM SCT040
     FM050100 33008KT P6SM SKC=

USA.gov is the U.S. government's official web portal to all federal, state and local government web resources and services.